sensor_id;sensor_type;location;lat;lon;timestamp;pressure;altitude;pressure_sealevel;temperature;humidity
32456;BME280;18912;43.270;27.942;2023-03-15T00:00:40;97432.75;;;8.91;72.75
32456;BME280;18912;43.270;27.942;2023-03-15T00:03:07;97410.50;;;8.58;72.74
32456;BME280;18912;43.270;27.942;2023-03-15T00:05:32;97419.13;;;8.80;71.96
32456;BME280;18912;43.270;27.942;2023-03-15T00:07:58;97400.09;;;8.68;72.46
32456;BME280;18912;43.270;27.942;2023-03-15T00:10:23;97401.16;;;8.61;72.82
32456;BME280;18912;43.270;27.942;2023-03-15T00:12:49;97412.31;;;8.77;71.79
32456;BME280;18912;43.270;27.942;2023-03-15T00:15:14;97400.97;;;8.56;72.98
32456;BME280;18912;43.270;27.942;2023-03-15T00:17:40;97393.50;;;8.58;73.08
32456;BME280;18912;43.270;27.942;2023-03-15T00:20:06;97393.72;;;8.49;73.19
32456;BME280;18912;43.270;27.942;2023-03-15T00:22:32;97381.28;;;8.55;73.48
32456;BME280;18912;43.270;27.942;2023-03-15T00:24:58;97382.41;;;8.15;75.04
32456;BME280;18912;43.270;27.942;2023-03-15T00:27:23;97375.09;;;8.55;74.01
32456;BME280;18912;43.270;27.942;2023-03-15T00:29:48;97381.97;;;8.24;76.07
32456;BME280;18912;43.270;27.942;2023-03-15T00:32:14;97371.03;;;8.13;76.93
32456;BME280;18912;43.270;27.942;2023-03-15T00:34:40;97373.28;;;8.35;75.83
32456;BME280;18912;43.270;27.942;2023-03-15T00:37:05;97372.63;;;8.40;75.57
32456;BME280;18912;43.270;27.942;2023-03-15T00:39:31;97364.75;;;8.19;76.95
32456;BME280;18912;43.270;27.942;2023-03-15T00:42:02;97359.81;;;8.29;76.35
32456;BME280;18912;43.270;27.942;2023-03-15T00:44:28;97356.72;;;8.12;77.26
32456;BME280;18912;43.270;27.942;2023-03-15T00:46:55;97352.16;;;8.19;77.15
32456;BME280;18912;43.270;27.942;2023-03-15T00:49:20;97350.72;;;8.30;76.77
32456;BME280;18912;43.270;27.942;2023-03-15T00:51:46;97347.19;;;8.10;78.27
32456;BME280;18912;43.270;27.942;2023-03-15T00:54:11;97333.50;;;8.31;76.46
32456;BME280;18912;43.270;27.942;2023-03-15T00:56:38;97328.56;;;8.28;76.81
32456;BME280;18912;43.270;27.942;2023-03-15T00:59:04;97318.63;;;8.79;73.50
32456;BME280;18912;43.270;27.942;2023-03-15T01:01:29;97319.38;;;8.42;74.91
32456;BME280;18912;43.270;27.942;2023-03-15T01:03:55;97314.38;;;8.52;75.14
32456;BME280;18912;43.270;27.942;2023-03-15T01:06:23;97314.94;;;8.67;74.92
32456;BME280;18912;43.270;27.942;2023-03-15T01:08:49;97311.00;;;8.63;75.75
32456;BME280;18912;43.270;27.942;2023-03-15T01:11:21;97305.63;;;8.63;75.98
32456;BME280;18912;43.270;27.942;2023-03-15T01:13:51;97301.00;;;8.77;75.66
32456;BME280;18912;43.270;27.942;2023-03-15T01:16:17;97295.47;;;8.59;76.46
32456;BME280;18912;43.270;27.942;2023-03-15T01:18:43;97306.69;;;8.62;75.98
32456;BME280;18912;43.270;27.942;2023-03-15T01:21:10;97290.13;;;8.52;75.54
32456;BME280;18912;43.270;27.942;2023-03-15T01:23:36;97303.47;;;8.78;76.17
32456;BME280;18912;43.270;27.942;2023-03-15T01:26:03;97310.47;;;8.86;76.08
32456;BME280;18912;43.270;27.942;2023-03-15T01:28:29;97290.06;;;8.72;76.30
32456;BME280;18912;43.270;27.942;2023-03-15T01:30:55;97296.00;;;8.80;75.87
32456;BME280;18912;43.270;27.942;2023-03-15T01:33:21;97293.22;;;8.93;75.18
32456;BME280;18912;43.270;27.942;2023-03-15T01:35:47;97286.16;;;9.30;74.05
32456;BME280;18912;43.270;27.942;2023-03-15T01:38:12;97287.75;;;8.75;76.02
32456;BME280;18912;43.270;27.942;2023-03-15T01:40:42;97291.34;;;9.00;74.09
32456;BME280;18912;43.270;27.942;2023-03-15T01:43:20;97292.88;;;9.14;72.58
32456;BME280;18912;43.270;27.942;2023-03-15T01:48:18;97291.84;;;8.84;74.11
32456;BME280;18912;43.270;27.942;2023-03-15T01:50:47;97289.00;;;8.73;75.86
32456;BME280;18912;43.270;27.942;2023-03-15T01:53:13;97280.53;;;8.63;76.24
32456;BME280;18912;43.270;27.942;2023-03-15T01:55:39;97287.13;;;8.73;75.27
32456;BME280;18912;43.270;27.942;2023-03-15T01:58:05;97280.69;;;8.74;75.70
32456;BME280;18912;43.270;27.942;2023-03-15T02:00:31;97285.59;;;8.46;76.38
32456;BME280;18912;43.270;27.942;2023-03-15T02:03:13;97286.59;;;8.58;74.96
32456;BME280;18912;43.270;27.942;2023-03-15T02:05:54;97280.13;;;8.97;74.41
32456;BME280;18912;43.270;27.942;2023-03-15T02:08:24;97268.63;;;8.83;75.29
32456;BME280;18912;43.270;27.942;2023-03-15T02:10:52;97278.19;;;8.79;75.56
32456;BME280;18912;43.270;27.942;2023-03-15T02:13:20;97274.44;;;8.80;75.17
32456;BME280;18912;43.270;27.942;2023-03-15T02:15:47;97276.19;;;8.99;75.23
32456;BME280;18912;43.270;27.942;2023-03-15T02:18:15;97275.47;;;9.17;74.55
32456;BME280;18912;43.270;27.942;2023-03-15T02:20:56;97276.41;;;8.98;74.72
32456;BME280;18912;43.270;27.942;2023-03-15T02:23:27;97279.06;;;9.04;74.45
32456;BME280;18912;43.270;27.942;2023-03-15T02:28:27;97281.13;;;8.71;74.92
32456;BME280;18912;43.270;27.942;2023-03-15T02:30:54;97277.69;;;8.51;77.25
32456;BME280;18912;43.270;27.942;2023-03-15T02:33:37;97277.91;;;8.87;75.57
32456;BME280;18912;43.270;27.942;2023-03-15T02:38:46;97287.50;;;8.83;75.99
32456;BME280;18912;43.270;27.942;2023-03-15T02:41:11;97277.88;;;9.00;76.21
32456;BME280;18912;43.270;27.942;2023-03-15T02:43:40;97276.84;;;8.95;76.49
32456;BME280;18912;43.270;27.942;2023-03-15T02:46:06;97281.09;;;9.40;74.56
32456;BME280;18912;43.270;27.942;2023-03-15T02:48:33;97281.50;;;9.12;75.73
32456;BME280;18912;43.270;27.942;2023-03-15T02:51:00;97283.81;;;9.09;75.03
32456;BME280;18912;43.270;27.942;2023-03-15T02:53:27;97279.94;;;8.98;75.42
32456;BME280;18912;43.270;27.942;2023-03-15T02:55:53;97282.09;;;9.14;75.14
32456;BME280;18912;43.270;27.942;2023-03-15T02:58:18;97278.66;;;9.01;76.24
32456;BME280;18912;43.270;27.942;2023-03-15T03:00:44;97274.53;;;9.29;74.45
32456;BME280;18912;43.270;27.942;2023-03-15T03:03:09;97258.91;;;9.13;74.62
32456;BME280;18912;43.270;27.942;2023-03-15T03:05:36;97284.19;;;9.12;75.18
32456;BME280;18912;43.270;27.942;2023-03-15T03:08:01;97273.59;;;8.86;76.34
32456;BME280;18912;43.270;27.942;2023-03-15T03:10:27;97267.50;;;9.28;74.93
32456;BME280;18912;43.270;27.942;2023-03-15T03:12:53;97272.84;;;9.04;75.72
32456;BME280;18912;43.270;27.942;2023-03-15T03:15:19;97259.03;;;9.25;74.27
32456;BME280;18912;43.270;27.942;2023-03-15T03:17:45;97272.59;;;9.61;73.82
32456;BME280;18912;43.270;27.942;2023-03-15T03:20:12;97275.84;;;9.20;75.58
32456;BME280;18912;43.270;27.942;2023-03-15T03:22:39;97275.28;;;9.36;76.02
32456;BME280;18912;43.270;27.942;2023-03-15T03:25:07;97276.00;;;9.50;75.35
32456;BME280;18912;43.270;27.942;2023-03-15T03:27:34;97281.03;;;9.47;74.50
32456;BME280;18912;43.270;27.942;2023-03-15T03:30:04;97282.28;;;9.44;73.65
32456;BME280;18912;43.270;27.942;2023-03-15T03:32:30;97281.41;;;8.94;75.10
32456;BME280;18912;43.270;27.942;2023-03-15T03:34:56;97279.63;;;8.82;75.25
32456;BME280;18912;43.270;27.942;2023-03-15T03:37:21;97280.13;;;8.97;74.84
32456;BME280;18912;43.270;27.942;2023-03-15T03:39:47;97282.22;;;9.26;73.60
32456;BME280;18912;43.270;27.942;2023-03-15T03:42:13;97280.13;;;9.03;73.78
32456;BME280;18912;43.270;27.942;2023-03-15T03:44:41;97298.53;;;9.37;72.92
32456;BME280;18912;43.270;27.942;2023-03-15T03:47:07;97278.38;;;9.15;73.63
32456;BME280;18912;43.270;27.942;2023-03-15T03:49:33;97269.59;;;9.26;74.20
32456;BME280;18912;43.270;27.942;2023-03-15T03:51:58;97276.53;;;8.78;73.05
32456;BME280;18912;43.270;27.942;2023-03-15T03:54:27;97279.88;;;9.05;74.44
32456;BME280;18912;43.270;27.942;2023-03-15T03:56:52;97280.59;;;9.50;73.33
32456;BME280;18912;43.270;27.942;2023-03-15T03:59:18;97273.66;;;9.35;74.81
32456;BME280;18912;43.270;27.942;2023-03-15T04:01:43;97272.81;;;9.60;72.80
32456;BME280;18912;43.270;27.942;2023-03-15T04:04:09;97260.28;;;9.47;73.54
32456;BME280;18912;43.270;27.942;2023-03-15T04:06:41;97261.13;;;9.66;72.48
32456;BME280;18912;43.270;27.942;2023-03-15T04:09:11;97277.47;;;9.21;74.66
32456;BME280;18912;43.270;27.942;2023-03-15T04:11:39;97262.69;;;9.55;73.64
32456;BME280;18912;43.270;27.942;2023-03-15T04:14:07;97264.84;;;9.22;73.96
32456;BME280;18912;43.270;27.942;2023-03-15T04:16:33;97270.44;;;9.20;74.04
32456;BME280;18912;43.270;27.942;2023-03-15T04:18:58;97256.03;;;9.33;74.20
32456;BME280;18912;43.270;27.942;2023-03-15T04:21:24;97259.16;;;9.05;73.88
32456;BME280;18912;43.270;27.942;2023-03-15T04:23:49;97256.25;;;9.07;74.17
32456;BME280;18912;43.270;27.942;2023-03-15T04:26:15;97247.78;;;8.97;73.86
32456;BME280;18912;43.270;27.942;2023-03-15T04:28:40;97250.13;;;9.42;73.19
32456;BME280;18912;43.270;27.942;2023-03-15T04:31:06;97247.41;;;9.24;73.45
32456;BME280;18912;43.270;27.942;2023-03-15T04:33:35;97260.44;;;9.27;73.20
32456;BME280;18912;43.270;27.942;2023-03-15T04:36:00;97245.44;;;9.38;72.29
32456;BME280;18912;43.270;27.942;2023-03-15T04:38:27;97258.66;;;9.15;73.02
32456;BME280;18912;43.270;27.942;2023-03-15T04:40:53;97252.06;;;9.35;73.07
32456;BME280;18912;43.270;27.942;2023-03-15T04:43:19;97262.41;;;9.38;73.55
32456;BME280;18912;43.270;27.942;2023-03-15T04:45:45;97263.84;;;9.16;73.59
32456;BME280;18912;43.270;27.942;2023-03-15T04:48:10;97259.22;;;9.23;73.23
32456;BME280;18912;43.270;27.942;2023-03-15T04:50:36;97265.00;;;9.27;73.59
32456;BME280;18912;43.270;27.942;2023-03-15T04:53:01;97254.53;;;9.62;72.64
32456;BME280;18912;43.270;27.942;2023-03-15T04:55:26;97257.84;;;9.39;73.00
32456;BME280;18912;43.270;27.942;2023-03-15T04:57:52;97264.19;;;9.26;73.53
32456;BME280;18912;43.270;27.942;2023-03-15T05:00:18;97262.13;;;9.22;74.55
32456;BME280;18912;43.270;27.942;2023-03-15T05:02:44;97250.34;;;8.85;73.54
32456;BME280;18912;43.270;27.942;2023-03-15T05:05:11;97254.44;;;9.25;73.18
32456;BME280;18912;43.270;27.942;2023-03-15T05:07:38;97247.63;;;9.23;73.62
32456;BME280;18912;43.270;27.942;2023-03-15T05:10:05;97242.25;;;9.66;72.82
32456;BME280;18912;43.270;27.942;2023-03-15T05:12:31;97236.44;;;9.69;72.72
32456;BME280;18912;43.270;27.942;2023-03-15T05:14:58;97242.63;;;9.26;74.17
32456;BME280;18912;43.270;27.942;2023-03-15T05:17:23;97231.59;;;9.53;73.42
32456;BME280;18912;43.270;27.942;2023-03-15T05:19:49;97225.19;;;9.72;72.67
32456;BME280;18912;43.270;27.942;2023-03-15T05:22:16;97230.97;;;9.51;73.09
32456;BME280;18912;43.270;27.942;2023-03-15T05:24:41;97222.34;;;9.67;73.46
32456;BME280;18912;43.270;27.942;2023-03-15T05:27:08;97222.13;;;9.43;74.49
32456;BME280;18912;43.270;27.942;2023-03-15T05:29:33;97228.28;;;9.51;72.77
32456;BME280;18912;43.270;27.942;2023-03-15T05:31:59;97223.00;;;9.62;73.54
32456;BME280;18912;43.270;27.942;2023-03-15T05:34:28;97212.28;;;9.92;72.61
32456;BME280;18912;43.270;27.942;2023-03-15T05:36:54;97218.09;;;9.71;71.99
32456;BME280;18912;43.270;27.942;2023-03-15T05:39:19;97222.16;;;9.62;72.12
32456;BME280;18912;43.270;27.942;2023-03-15T05:41:47;97215.28;;;9.66;72.15
32456;BME280;18912;43.270;27.942;2023-03-15T05:44:12;97215.06;;;9.42;72.67
32456;BME280;18912;43.270;27.942;2023-03-15T05:46:38;97220.09;;;9.82;72.11
32456;BME280;18912;43.270;27.942;2023-03-15T05:49:03;97209.44;;;9.87;71.22
32456;BME280;18912;43.270;27.942;2023-03-15T05:51:28;97210.72;;;10.20;70.46
32456;BME280;18912;43.270;27.942;2023-03-15T05:53:54;97218.47;;;10.17;70.66
32456;BME280;18912;43.270;27.942;2023-03-15T05:56:19;97220.56;;;10.15;71.10
32456;BME280;18912;43.270;27.942;2023-03-15T05:58:45;97209.91;;;10.38;70.51
32456;BME280;18912;43.270;27.942;2023-03-15T06:01:10;97212.38;;;10.69;69.53
32456;BME280;18912;43.270;27.942;2023-03-15T06:03:36;97192.91;;;10.90;69.15
32456;BME280;18912;43.270;27.942;2023-03-15T06:06:01;97194.88;;;11.36;66.92
32456;BME280;18912;43.270;27.942;2023-03-15T06:08:27;97183.78;;;10.91;67.16
32456;BME280;18912;43.270;27.942;2023-03-15T06:10:53;97177.53;;;10.50;69.04
32456;BME280;18912;43.270;27.942;2023-03-15T06:13:18;97181.72;;;10.75;68.00
32456;BME280;18912;43.270;27.942;2023-03-15T06:15:47;97184.25;;;10.59;69.10
32456;BME280;18912;43.270;27.942;2023-03-15T06:18:13;97186.16;;;10.99;67.27
32456;BME280;18912;43.270;27.942;2023-03-15T06:20:42;97175.50;;;11.51;66.17
32456;BME280;18912;43.270;27.942;2023-03-15T06:23:07;97181.34;;;10.72;68.09
32456;BME280;18912;43.270;27.942;2023-03-15T06:25:33;97171.38;;;11.60;65.76
32456;BME280;18912;43.270;27.942;2023-03-15T06:27:58;97174.94;;;11.72;65.46
32456;BME280;18912;43.270;27.942;2023-03-15T06:30:24;97167.25;;;11.80;64.47
32456;BME280;18912;43.270;27.942;2023-03-15T06:32:50;97160.66;;;11.88;64.05
32456;BME280;18912;43.270;27.942;2023-03-15T06:35:16;97160.78;;;12.33;62.67
32456;BME280;18912;43.270;27.942;2023-03-15T06:37:41;97176.59;;;12.24;60.98
32456;BME280;18912;43.270;27.942;2023-03-15T06:40:08;97162.00;;;12.53;60.12
32456;BME280;18912;43.270;27.942;2023-03-15T06:42:34;97168.56;;;12.57;59.96
32456;BME280;18912;43.270;27.942;2023-03-15T06:45:00;97163.19;;;12.17;60.57
32456;BME280;18912;43.270;27.942;2023-03-15T06:47:26;97150.81;;;12.94;59.19
32456;BME280;18912;43.270;27.942;2023-03-15T06:49:52;97152.91;;;13.37;57.73
32456;BME280;18912;43.270;27.942;2023-03-15T06:52:17;97144.19;;;13.19;57.99
32456;BME280;18912;43.270;27.942;2023-03-15T06:54:43;97148.78;;;13.35;57.02
32456;BME280;18912;43.270;27.942;2023-03-15T06:57:09;97161.84;;;13.71;57.19
32456;BME280;18912;43.270;27.942;2023-03-15T06:59:34;97181.19;;;13.41;57.73
32456;BME280;18912;43.270;27.942;2023-03-15T07:02:00;97184.13;;;12.78;59.22
32456;BME280;18912;43.270;27.942;2023-03-15T07:04:25;97185.66;;;12.18;61.33
32456;BME280;18912;43.270;27.942;2023-03-15T07:06:51;97185.00;;;11.65;62.83
32456;BME280;18912;43.270;27.942;2023-03-15T07:09:17;97169.97;;;11.69;63.89
32456;BME280;18912;43.270;27.942;2023-03-15T07:11:42;97183.63;;;11.51;64.82
32456;BME280;18912;43.270;27.942;2023-03-15T07:14:08;97181.03;;;11.67;65.53
32456;BME280;18912;43.270;27.942;2023-03-15T07:16:33;97190.41;;;12.11;63.32
32456;BME280;18912;43.270;27.942;2023-03-15T07:19:00;97186.00;;;12.21;63.50
32456;BME280;18912;43.270;27.942;2023-03-15T07:21:26;97185.13;;;11.58;64.76
32456;BME280;18912;43.270;27.942;2023-03-15T07:23:52;97177.84;;;11.82;64.15
32456;BME280;18912;43.270;27.942;2023-03-15T07:26:17;97187.00;;;12.04;63.84
32456;BME280;18912;43.270;27.942;2023-03-15T07:28:43;97185.78;;;12.23;63.78
32456;BME280;18912;43.270;27.942;2023-03-15T07:31:09;97188.34;;;11.67;65.24
32456;BME280;18912;43.270;27.942;2023-03-15T07:33:35;97199.22;;;11.25;65.80
32456;BME280;18912;43.270;27.942;2023-03-15T07:36:04;97198.09;;;11.91;65.32
32456;BME280;18912;43.270;27.942;2023-03-15T07:38:30;97195.28;;;11.74;65.54
32456;BME280;18912;43.270;27.942;2023-03-15T07:40:56;97198.34;;;11.66;65.02
32456;BME280;18912;43.270;27.942;2023-03-15T07:43:22;97207.06;;;12.31;62.59
32456;BME280;18912;43.270;27.942;2023-03-15T07:45:48;97198.81;;;12.66;62.20
32456;BME280;18912;43.270;27.942;2023-03-15T07:48:14;97191.69;;;12.48;61.32
32456;BME280;18912;43.270;27.942;2023-03-15T07:50:40;97204.16;;;12.21;63.54
32456;BME280;18912;43.270;27.942;2023-03-15T07:53:06;97205.84;;;11.99;63.58
32456;BME280;18912;43.270;27.942;2023-03-15T07:55:32;97211.03;;;11.54;63.35
32456;BME280;18912;43.270;27.942;2023-03-15T07:57:58;97215.81;;;12.10;62.03
32456;BME280;18912;43.270;27.942;2023-03-15T08:00:23;97206.59;;;11.71;62.50
32456;BME280;18912;43.270;27.942;2023-03-15T08:02:49;97204.53;;;12.01;61.43
32456;BME280;18912;43.270;27.942;2023-03-15T08:05:15;97215.97;;;11.92;63.82
32456;BME280;18912;43.270;27.942;2023-03-15T08:07:44;97203.63;;;11.84;64.16
32456;BME280;18912;43.270;27.942;2023-03-15T08:10:11;97198.31;;;11.89;63.06
32456;BME280;18912;43.270;27.942;2023-03-15T08:12:36;97200.06;;;12.47;61.89
32456;BME280;18912;43.270;27.942;2023-03-15T08:15:04;97198.03;;;12.14;62.42
32456;BME280;18912;43.270;27.942;2023-03-15T08:17:29;97187.59;;;11.37;64.09
32456;BME280;18912;43.270;27.942;2023-03-15T08:19:55;97204.06;;;11.35;65.59
32456;BME280;18912;43.270;27.942;2023-03-15T08:22:20;97197.38;;;11.72;62.87
32456;BME280;18912;43.270;27.942;2023-03-15T08:24:46;97209.97;;;11.32;65.89
32456;BME280;18912;43.270;27.942;2023-03-15T08:27:11;97187.50;;;11.78;65.55
32456;BME280;18912;43.270;27.942;2023-03-15T08:29:37;97182.84;;;12.13;63.38
32456;BME280;18912;43.270;27.942;2023-03-15T08:32:02;97193.53;;;12.19;61.74
32456;BME280;18912;43.270;27.942;2023-03-15T08:34:28;97187.47;;;11.89;63.45
32456;BME280;18912;43.270;27.942;2023-03-15T08:36:53;97199.56;;;12.21;64.18
32456;BME280;18912;43.270;27.942;2023-03-15T08:39:19;97193.16;;;12.67;61.92
32456;BME280;18912;43.270;27.942;2023-03-15T08:41:44;97179.88;;;12.54;60.30
32456;BME280;18912;43.270;27.942;2023-03-15T08:44:11;97187.63;;;12.90;61.77
32456;BME280;18912;43.270;27.942;2023-03-15T08:46:37;97178.75;;;13.78;59.13
32456;BME280;18912;43.270;27.942;2023-03-15T08:49:02;97190.72;;;14.58;57.49
32456;BME280;18912;43.270;27.942;2023-03-15T08:51:28;97198.19;;;13.70;56.46
32456;BME280;18912;43.270;27.942;2023-03-15T08:53:55;97173.94;;;14.23;57.62
32456;BME280;18912;43.270;27.942;2023-03-15T08:56:21;97183.97;;;14.01;55.16
32456;BME280;18912;43.270;27.942;2023-03-15T08:58:47;97196.66;;;13.41;55.94
32456;BME280;18912;43.270;27.942;2023-03-15T09:01:14;97174.25;;;13.67;55.09
32456;BME280;18912;43.270;27.942;2023-03-15T09:03:40;97188.09;;;13.16;58.45
32456;BME280;18912;43.270;27.942;2023-03-15T09:06:08;97197.72;;;13.40;58.52
32456;BME280;18912;43.270;27.942;2023-03-15T09:08:33;97176.88;;;12.95;60.28
32456;BME280;18912;43.270;27.942;2023-03-15T09:10:59;97160.63;;;13.12;58.93
32456;BME280;18912;43.270;27.942;2023-03-15T09:13:28;97173.31;;;13.06;58.62
32456;BME280;18912;43.270;27.942;2023-03-15T09:15:55;97162.09;;;13.69;56.04
32456;BME280;18912;43.270;27.942;2023-03-15T09:18:21;97170.69;;;13.45;57.44
32456;BME280;18912;43.270;27.942;2023-03-15T09:20:48;97168.50;;;12.97;59.30
32456;BME280;18912;43.270;27.942;2023-03-15T09:23:14;97175.44;;;13.38;59.46
32456;BME280;18912;43.270;27.942;2023-03-15T09:25:40;97169.44;;;13.19;59.88
32456;BME280;18912;43.270;27.942;2023-03-15T09:28:07;97174.09;;;12.62;60.26
32456;BME280;18912;43.270;27.942;2023-03-15T09:30:34;97168.03;;;13.33;60.18
32456;BME280;18912;43.270;27.942;2023-03-15T09:33:00;97179.13;;;13.15;61.14
32456;BME280;18912;43.270;27.942;2023-03-15T09:35:25;97168.25;;;13.65;60.40
32456;BME280;18912;43.270;27.942;2023-03-15T09:37:51;97174.16;;;12.67;58.57
32456;BME280;18912;43.270;27.942;2023-03-15T09:40:21;97163.53;;;12.21;61.92
32456;BME280;18912;43.270;27.942;2023-03-15T09:46:29;97154.06;;;12.23;61.68
32456;BME280;18912;43.270;27.942;2023-03-15T09:48:58;97161.22;;;12.41;62.95
32456;BME280;18912;43.270;27.942;2023-03-15T09:51:56;97140.34;;;12.70;61.72
32456;BME280;18912;43.270;27.942;2023-03-15T09:54:27;97138.69;;;12.12;63.55
32456;BME280;18912;43.270;27.942;2023-03-15T09:57:02;97141.84;;;12.21;65.60
32456;BME280;18912;43.270;27.942;2023-03-15T09:59:34;97136.00;;;12.01;65.18
32456;BME280;18912;43.270;27.942;2023-03-15T10:02:19;97133.69;;;12.33;65.03
32456;BME280;18912;43.270;27.942;2023-03-15T10:04:48;97136.69;;;12.48;62.19
32456;BME280;18912;43.270;27.942;2023-03-15T10:07:16;97153.66;;;12.43;64.89
32456;BME280;18912;43.270;27.942;2023-03-15T10:09:42;97139.91;;;12.61;64.87
32456;BME280;18912;43.270;27.942;2023-03-15T10:17:23;97130.63;;;12.57;67.17
32456;BME280;18912;43.270;27.942;2023-03-15T10:19:59;97122.47;;;12.29;68.53
32456;BME280;18912;43.270;27.942;2023-03-15T10:22:37;97114.38;;;12.57;66.36
32456;BME280;18912;43.270;27.942;2023-03-15T10:25:21;97114.22;;;12.07;67.65
32456;BME280;18912;43.270;27.942;2023-03-15T10:30:27;97108.94;;;12.01;68.46
32456;BME280;18912;43.270;27.942;2023-03-15T10:32:58;97105.69;;;11.76;68.59
32456;BME280;18912;43.270;27.942;2023-03-15T10:35:24;97102.44;;;11.74;71.00
32456;BME280;18912;43.270;27.942;2023-03-15T10:37:50;97125.06;;;12.07;69.80
32456;BME280;18912;43.270;27.942;2023-03-15T10:43:22;97098.25;;;11.94;66.85
32456;BME280;18912;43.270;27.942;2023-03-15T10:46:01;97088.34;;;12.00;69.69
32456;BME280;18912;43.270;27.942;2023-03-15T10:48:28;97094.19;;;12.08;66.90
32456;BME280;18912;43.270;27.942;2023-03-15T10:50:54;97079.03;;;12.52;66.23
32456;BME280;18912;43.270;27.942;2023-03-15T10:53:20;97083.97;;;12.88;66.38
32456;BME280;18912;43.270;27.942;2023-03-15T10:55:47;97065.09;;;12.93;64.29
32456;BME280;18912;43.270;27.942;2023-03-15T10:58:23;97062.44;;;12.98;63.80
32456;BME280;18912;43.270;27.942;2023-03-15T11:03:24;97061.50;;;12.43;65.01
32456;BME280;18912;43.270;27.942;2023-03-15T11:05:52;97062.97;;;12.95;65.42
32456;BME280;18912;43.270;27.942;2023-03-15T11:08:21;97063.13;;;13.05;64.70
32456;BME280;18912;43.270;27.942;2023-03-15T11:10:56;97076.63;;;12.56;65.04
32456;BME280;18912;43.270;27.942;2023-03-15T11:13:23;97060.38;;;12.56;65.75
32456;BME280;18912;43.270;27.942;2023-03-15T11:18:25;97053.09;;;12.11;66.73
32456;BME280;18912;43.270;27.942;2023-03-15T11:20:51;97052.84;;;12.13;66.21
32456;BME280;18912;43.270;27.942;2023-03-15T11:23:26;97045.59;;;12.63;65.40
32456;BME280;18912;43.270;27.942;2023-03-15T11:25:53;97042.47;;;12.38;65.50
32456;BME280;18912;43.270;27.942;2023-03-15T11:28:22;97037.06;;;12.10;67.47
32456;BME280;18912;43.270;27.942;2023-03-15T11:30:49;97032.66;;;12.20;67.50
32456;BME280;18912;43.270;27.942;2023-03-15T11:33:40;97024.97;;;12.46;68.20
32456;BME280;18912;43.270;27.942;2023-03-15T11:36:12;97027.13;;;12.44;66.38
32456;BME280;18912;43.270;27.942;2023-03-15T11:38:41;97018.09;;;13.04;64.77
32456;BME280;18912;43.270;27.942;2023-03-15T11:43:55;97026.38;;;12.48;66.32
32456;BME280;18912;43.270;27.942;2023-03-15T11:51:48;97023.81;;;12.58;68.19
32456;BME280;18912;43.270;27.942;2023-03-15T11:54:16;97033.84;;;12.58;69.41
32456;BME280;18912;43.270;27.942;2023-03-15T11:59:14;97030.25;;;12.85;68.39
32456;BME280;18912;43.270;27.942;2023-03-15T12:01:49;97013.56;;;12.93;67.73
32456;BME280;18912;43.270;27.942;2023-03-15T12:06:56;97033.53;;;13.04;64.75
32456;BME280;18912;43.270;27.942;2023-03-15T12:15:13;97022.94;;;13.41;65.95
32456;BME280;18912;43.270;27.942;2023-03-15T12:17:55;97018.66;;;13.66;65.31
32456;BME280;18912;43.270;27.942;2023-03-15T12:20:39;97006.53;;;13.74;62.52
32456;BME280;18912;43.270;27.942;2023-03-15T12:23:36;97024.59;;;14.12;61.24
32456;BME280;18912;43.270;27.942;2023-03-15T12:28:40;97024.09;;;13.66;63.54
32456;BME280;18912;43.270;27.942;2023-03-15T12:31:11;97030.88;;;13.26;64.84
32456;BME280;18912;43.270;27.942;2023-03-15T12:33:47;97036.06;;;13.49;62.48
32456;BME280;18912;43.270;27.942;2023-03-15T12:36:31;97048.91;;;13.53;64.88
32456;BME280;18912;43.270;27.942;2023-03-15T12:39:20;97047.94;;;13.64;63.46
32456;BME280;18912;43.270;27.942;2023-03-15T12:41:48;97040.47;;;13.71;62.80
32456;BME280;18912;43.270;27.942;2023-03-15T12:47:03;97044.22;;;13.10;64.45
32456;BME280;18912;43.270;27.942;2023-03-15T12:49:33;97042.97;;;13.01;65.29
32456;BME280;18912;43.270;27.942;2023-03-15T12:54:47;97053.44;;;12.76;66.75
32456;BME280;18912;43.270;27.942;2023-03-15T12:57:26;97040.25;;;13.01;66.08
32456;BME280;18912;43.270;27.942;2023-03-15T12:59:54;97038.22;;;13.08;66.35
32456;BME280;18912;43.270;27.942;2023-03-15T13:04:48;97039.75;;;13.21;65.18
32456;BME280;18912;43.270;27.942;2023-03-15T13:07:24;97043.97;;;13.12;65.00
32456;BME280;18912;43.270;27.942;2023-03-15T13:10:19;97037.03;;;12.88;65.16
32456;BME280;18912;43.270;27.942;2023-03-15T13:16:08;97039.38;;;13.94;62.38
32456;BME280;18912;43.270;27.942;2023-03-15T13:18:25;97035.72;;;13.62;60.59
32456;BME280;18912;43.270;27.942;2023-03-15T13:21:16;97029.06;;;13.74;62.61
32456;BME280;18912;43.270;27.942;2023-03-15T13:23:50;97038.59;;;13.55;62.35
32456;BME280;18912;43.270;27.942;2023-03-15T13:29:26;97029.00;;;13.48;63.27
32456;BME280;18912;43.270;27.942;2023-03-15T13:32:20;97027.09;;;13.70;65.04
32456;BME280;18912;43.270;27.942;2023-03-15T13:34:47;97030.53;;;13.39;65.14
32456;BME280;18912;43.270;27.942;2023-03-15T13:37:23;97042.19;;;13.39;64.02
32456;BME280;18912;43.270;27.942;2023-03-15T13:40:01;97029.84;;;13.48;65.71
32456;BME280;18912;43.270;27.942;2023-03-15T13:42:28;97029.00;;;13.91;65.12
32456;BME280;18912;43.270;27.942;2023-03-15T13:45:12;97037.72;;;13.50;65.82
32456;BME280;18912;43.270;27.942;2023-03-15T13:47:44;97025.09;;;13.22;67.05
32456;BME280;18912;43.270;27.942;2023-03-15T13:50:18;97024.31;;;12.72;69.74
32456;BME280;18912;43.270;27.942;2023-03-15T13:52:44;97022.19;;;12.90;69.16
32456;BME280;18912;43.270;27.942;2023-03-15T13:55:16;97016.25;;;12.77;68.79
32456;BME280;18912;43.270;27.942;2023-03-15T13:57:44;97004.13;;;12.79;70.09
32456;BME280;18912;43.270;27.942;2023-03-15T14:00:12;96999.78;;;13.33;67.89
32456;BME280;18912;43.270;27.942;2023-03-15T14:05:10;97019.25;;;13.08;67.16